Αρχική σελίδα
METAR-TAF:

METAR-TAF

Αεροδρόμια :

Βαγδάτη, Ιράκ

γεωγραφικό πλάτος: 33-15-45N, γεωγραφικό μήκος: 44-14-04E, υψόμετρο: 35 μ

Παρών καιρός

Η αναφορά έγινε 41 λεπτά πριν, στις 23:00 UTC
Άνεμος 5 kt από
Θερμοκρασία 4°C
Υγρασία 75%
Πίεση 1022 hPa
Ορατότητα 10 χλμ και άνω
Δεν υπάρχουν νέφη με βάση κάτω από τα 1500 μ. και δεν υπάρχουν νέφη σωρειτομελανίτες.

METAR: ORBI 212300Z 31005KT CAVOK 04/M00 Q1022 NOSIG

Χρόνος: 02:41 (23:41 UTC)

Πρόγνωση Καιρού

Η αναφορά έγινε 7 ώρες και 41 λεπτά πριν, στις 16:00 UTC
Η πρόγνωση ισχύει από τις 21 στις 18 UTC έως τις 22 στις 18 UTC
Άνεμος 10 kt από Δ/BΔ
Ορατότητα: 7000 μ

TAF: ORBI 211600Z 2118/2218 30010KT 7000 NSC

Μετεωρολογικές αναφορές και προγνώσεις για περισσότερα από 4000 αεροδρόμια (δελτία METAR και TAF).

Οι διαθέσιμοι σταθμοί απεικονίζονται στο χάρτη με κίτρινες και κόκκινες κουκκίδες.

Μετακινήστε το ποντίκι πάνω από τις κουκκίδες για να δείτε το όνομα του σταθμού.

Στη συνέχεια, κάντε κλικ για να δείτε τις μετεωρολογικές αναφορές και τις προγνώσεις καιρού.

Για να αλλάξετε το χάρτη: κάντε κλικ στα πράσινα κουμπιά με τον μαύρο σταυρό για να ζουμάρετε, στο πράσινο κουμπί με την παύλα για να αφαιρέσετε το ζουμ ή στα πράσινα βέλη για να αντιπαραβάλλετε χάρτες.


METAR-TAF: